createdAt,value
2023-07-02T00:02:17.109Z,43.13
2023-07-02T00:04:44.307Z,45.42
2023-07-02T00:07:10.869Z,45.10
2023-07-02T00:09:38.146Z,49.05
2023-07-02T00:12:04.941Z,43.50
2023-07-02T00:14:31.451Z,47.10
2023-07-02T00:16:58.199Z,44.90
2023-07-02T00:19:24.657Z,40.90
2023-07-02T00:21:51.193Z,40.92
2023-07-02T00:24:17.629Z,40.60
2023-07-02T00:26:44.130Z,38.35
2023-07-02T00:29:10.563Z,42.22
2023-07-02T00:31:37.186Z,44.95
2023-07-02T00:34:05.133Z,46.70
2023-07-02T00:36:32.730Z,44.40
2023-07-02T00:38:59.842Z,49.47
2023-07-02T00:41:27.808Z,43.53
2023-07-02T00:43:55.633Z,47.90
2023-07-02T00:46:26.230Z,43.13
2023-07-02T00:51:25.404Z,51.10
2023-07-02T00:53:53.827Z,39.53
2023-07-02T00:56:20.416Z,44.42
2023-07-02T00:58:49.356Z,43.58
2023-07-02T01:01:17.667Z,48.38
2023-07-02T01:04:01.681Z,41.75
2023-07-02T01:06:33.848Z,42.75
2023-07-02T01:09:03.003Z,52.35
2023-07-02T01:11:32.512Z,42.75
2023-07-02T01:14:06.537Z,41.60
2023-07-02T01:16:35.154Z,47.90
2023-07-02T01:19:05.887Z,44.20
2023-07-02T01:21:33.523Z,50.50
2023-07-02T01:24:03.710Z,51.72
2023-07-02T01:26:34.930Z,49.17
2023-07-02T01:29:22.194Z,50.88
2023-07-02T01:31:49.115Z,47.30
2023-07-02T01:34:16.080Z,49.85
2023-07-02T01:36:42.898Z,48.78
2023-07-02T01:39:09.456Z,52.30
2023-07-02T01:41:50.506Z,55.10
2023-07-02T01:44:17.087Z,56.75
2023-07-02T01:46:44.418Z,56.10
2023-07-02T01:49:10.872Z,62.60
2023-07-02T01:51:37.321Z,61.95
2023-07-02T01:54:03.959Z,60.63
2023-07-02T01:56:30.531Z,59.58
2023-07-02T01:58:56.995Z,58.30
2023-07-02T02:01:23.532Z,58.00
2023-07-02T02:03:50.068Z,58.38
2023-07-02T02:06:16.565Z,59.58
2023-07-02T02:08:43.045Z,58.80
2023-07-02T02:11:09.544Z,59.08
2023-07-02T02:13:36.131Z,56.83
2023-07-02T02:16:02.671Z,59.13
2023-07-02T02:18:29.194Z,55.25
2023-07-02T02:20:55.662Z,56.42
2023-07-02T02:23:22.187Z,56.53
2023-07-02T02:25:48.706Z,59.67
2023-07-02T02:28:15.191Z,59.67
2023-07-02T02:30:41.640Z,58.40
2023-07-02T02:33:08.091Z,51.50
2023-07-02T02:35:34.537Z,53.90
2023-07-02T02:38:04.591Z,57.30
2023-07-02T02:40:31.293Z,54.53
2023-07-02T02:42:57.776Z,50.55
2023-07-02T02:45:24.369Z,50.22
2023-07-02T02:47:50.870Z,53.63
2023-07-02T02:50:17.425Z,54.65
2023-07-02T02:52:44.170Z,52.13
2023-07-02T02:55:11.964Z,61.28
2023-07-02T02:57:38.483Z,54.40
2023-07-02T03:00:06.113Z,57.00
2023-07-02T03:02:32.771Z,54.20
2023-07-02T03:05:03.315Z,60.00
2023-07-02T03:07:30.328Z,54.40
2023-07-02T03:09:56.771Z,58.50
2023-07-02T03:12:25.809Z,56.22
2023-07-02T03:14:55.538Z,54.97
2023-07-02T03:17:22.928Z,56.67
2023-07-02T03:19:49.816Z,57.60
2023-07-02T03:22:16.597Z,57.20
2023-07-02T03:24:43.043Z,51.13
2023-07-02T03:27:09.614Z,62.85
2023-07-02T03:29:36.819Z,51.97
2023-07-02T03:32:03.356Z,55.63
2023-07-02T03:34:29.803Z,51.53
2023-07-02T03:36:56.244Z,57.10
2023-07-02T03:39:22.837Z,55.92
2023-07-02T03:41:49.343Z,56.03
2023-07-02T03:44:15.913Z,51.92
2023-07-02T03:46:42.471Z,52.70
2023-07-02T03:49:09.146Z,62.67
2023-07-02T03:51:35.668Z,56.30
2023-07-02T03:54:02.288Z,53.15
2023-07-02T03:56:28.756Z,58.13
2023-07-02T03:58:55.278Z,53.90
2023-07-02T04:01:21.795Z,55.58
2023-07-02T04:03:53.403Z,56.22
2023-07-02T04:06:20.285Z,53.75
2023-07-02T04:08:47.034Z,58.38
2023-07-02T04:11:13.770Z,54.92
2023-07-02T04:13:41.017Z,56.75
2023-07-02T04:16:08.023Z,56.58
2023-07-02T04:18:34.630Z,56.63
2023-07-02T04:21:02.612Z,55.40
2023-07-02T04:23:29.219Z,52.33
2023-07-02T04:26:04.082Z,57.63
2023-07-02T04:28:42.742Z,53.33
2023-07-02T04:31:09.252Z,56.40
2023-07-02T04:33:37.186Z,57.33
2023-07-02T04:36:04.869Z,56.85
2023-07-02T04:38:31.530Z,50.55
2023-07-02T04:41:06.223Z,57.22
2023-07-02T04:43:34.222Z,52.72
2023-07-02T04:46:01.777Z,54.00
2023-07-02T04:48:28.876Z,52.53
2023-07-02T04:50:55.407Z,52.55
2023-07-02T04:53:21.852Z,54.85
2023-07-02T04:55:48.322Z,54.63
2023-07-02T04:58:14.852Z,48.30
2023-07-02T05:00:41.309Z,47.53
2023-07-02T05:03:10.679Z,52.30
2023-07-02T05:05:37.176Z,53.90
2023-07-02T05:08:05.876Z,54.03
2023-07-02T05:10:32.673Z,52.75
2023-07-02T05:12:59.138Z,49.15
2023-07-02T05:15:27.846Z,47.95
2023-07-02T05:17:54.735Z,53.17
2023-07-02T05:20:33.394Z,52.88
2023-07-02T05:22:59.947Z,47.58
2023-07-02T05:25:26.423Z,48.45
2023-07-02T05:27:54.056Z,52.75
2023-07-02T05:30:20.740Z,46.72
2023-07-02T05:32:47.203Z,44.67
2023-07-02T05:35:13.840Z,47.22
2023-07-02T05:37:43.145Z,49.63
2023-07-02T05:40:09.966Z,48.60
2023-07-02T05:42:45.867Z,47.63
2023-07-02T05:45:13.201Z,45.83
2023-07-02T05:47:39.990Z,46.88
2023-07-02T05:50:08.425Z,46.33
2023-07-02T05:52:37.188Z,48.90
2023-07-02T05:55:04.412Z,44.80
2023-07-02T05:57:41.080Z,45.80
2023-07-02T06:00:17.085Z,47.63
2023-07-02T06:02:44.055Z,46.40
2023-07-02T06:05:13.966Z,50.65
2023-07-02T06:07:40.492Z,43.25
2023-07-02T06:10:12.216Z,47.35
2023-07-02T06:12:39.553Z,45.92
2023-07-02T06:15:06.543Z,43.00
2023-07-02T06:17:35.347Z,46.63
2023-07-02T06:20:05.837Z,44.88
2023-07-02T06:22:32.525Z,48.90
2023-07-02T06:25:05.999Z,47.30
2023-07-02T06:27:32.961Z,47.30
2023-07-02T06:29:59.518Z,45.97
2023-07-02T06:32:33.850Z,46.80
2023-07-02T06:35:00.744Z,45.88
2023-07-02T06:37:33.791Z,53.15
2023-07-02T06:40:00.775Z,49.15
2023-07-02T06:42:39.178Z,44.45
2023-07-02T06:45:07.593Z,45.25
2023-07-02T06:47:43.499Z,45.22
2023-07-02T06:50:10.088Z,45.97
2023-07-02T06:52:37.541Z,46.95
2023-07-02T06:55:05.569Z,46.97
2023-07-02T06:57:32.029Z,45.42
2023-07-02T07:00:00.476Z,44.92
2023-07-02T07:02:28.199Z,46.65
2023-07-02T07:04:54.769Z,42.40
2023-07-02T07:07:21.569Z,44.40
2023-07-02T07:09:48.104Z,44.30
2023-07-02T07:12:14.533Z,45.38
2023-07-02T07:14:41.001Z,47.03
2023-07-02T07:17:07.646Z,46.72
2023-07-02T07:19:34.129Z,45.55
2023-07-02T07:22:00.704Z,47.03
2023-07-02T07:24:27.169Z,46.63
2023-07-02T07:26:53.653Z,45.30
2023-07-02T07:29:20.228Z,47.03
2023-07-02T07:31:47.481Z,51.95
2023-07-02T07:34:14.067Z,47.88
2023-07-02T07:36:40.597Z,57.85
2023-07-02T07:39:07.135Z,45.25
2023-07-02T07:41:33.798Z,44.45
2023-07-02T07:44:01.139Z,47.50
2023-07-02T07:46:27.601Z,47.78
2023-07-02T07:48:55.093Z,43.80
2023-07-02T07:51:21.570Z,45.45
2023-07-02T07:53:48.014Z,48.28
2023-07-02T07:56:14.464Z,46.40
2023-07-02T07:58:40.972Z,47.85
2023-07-02T08:01:07.522Z,44.95
2023-07-02T08:03:34.017Z,43.95
2023-07-02T08:06:00.542Z,45.28
2023-07-02T08:08:27.038Z,46.72
2023-07-02T08:10:53.603Z,47.40
2023-07-02T08:13:20.071Z,48.13
2023-07-02T08:15:46.553Z,43.40
2023-07-02T08:18:14.349Z,46.92
2023-07-02T08:20:40.908Z,44.85
2023-07-02T08:23:07.393Z,43.05
2023-07-02T08:25:33.910Z,45.03
2023-07-02T08:28:00.495Z,44.58
2023-07-02T08:30:27.094Z,43.72
2023-07-02T08:32:55.363Z,46.53
2023-07-02T08:35:22.056Z,45.25
2023-07-02T08:37:49.781Z,46.08
2023-07-02T08:40:20.273Z,45.92
2023-07-02T08:42:50.852Z,42.53
2023-07-02T08:47:48.900Z,40.13
2023-07-02T08:50:15.484Z,38.72
2023-07-02T08:52:43.908Z,37.00
2023-07-02T08:55:10.482Z,38.40
2023-07-02T08:57:37.384Z,41.70
2023-07-02T09:00:11.302Z,38.35
2023-07-02T09:02:37.958Z,37.75
2023-07-02T09:05:05.574Z,39.22
2023-07-02T09:07:32.207Z,40.25
2023-07-02T09:09:58.820Z,38.40
2023-07-02T09:12:30.691Z,35.60
2023-07-02T09:15:07.655Z,32.95
2023-07-02T09:17:38.030Z,32.38
2023-07-02T09:20:09.106Z,31.13
2023-07-02T09:22:36.517Z,31.45
2023-07-02T09:25:03.866Z,36.58
2023-07-02T09:27:37.592Z,34.50
2023-07-02T09:30:16.542Z,36.45
2023-07-02T09:32:44.677Z,44.47
2023-07-02T09:35:11.709Z,34.30
2023-07-02T09:37:40.277Z,31.60
2023-07-02T09:40:10.152Z,33.72
2023-07-02T09:42:39.533Z,29.50
2023-07-02T09:45:09.557Z,32.58
2023-07-02T09:47:46.338Z,30.95
2023-07-02T09:50:15.785Z,34.95
2023-07-02T09:52:42.960Z,33.45
2023-07-02T09:55:12.229Z,31.33
2023-07-02T09:57:40.710Z,30.65
2023-07-02T10:00:08.923Z,32.42
2023-07-02T10:02:37.107Z,29.88
2023-07-02T10:05:04.098Z,33.15
2023-07-02T10:07:33.311Z,31.73
2023-07-02T10:09:59.987Z,31.42
2023-07-02T10:12:27.717Z,33.75
2023-07-02T10:14:56.213Z,31.50
2023-07-02T10:17:30.267Z,27.55
2023-07-02T10:19:58.786Z,30.60
2023-07-02T10:22:25.358Z,28.27
2023-07-02T10:24:58.522Z,25.92
2023-07-02T10:27:42.021Z,27.25
2023-07-02T10:30:10.751Z,28.02
2023-07-02T10:32:39.585Z,28.05
2023-07-02T10:35:19.551Z,26.73
2023-07-02T10:37:46.722Z,27.57
2023-07-02T10:40:14.224Z,27.80
2023-07-02T10:42:51.818Z,27.63
2023-07-02T10:45:19.591Z,27.65
2023-07-02T10:47:47.205Z,27.23
2023-07-02T10:50:18.152Z,30.73
2023-07-02T10:52:44.780Z,25.75
2023-07-02T10:55:11.295Z,25.50
2023-07-02T10:57:37.721Z,24.50
2023-07-02T11:00:09.144Z,26.55
2023-07-02T11:02:37.540Z,25.08
2023-07-02T11:05:08.548Z,22.88
2023-07-02T11:07:38.161Z,21.63
2023-07-02T11:10:05.637Z,21.37
2023-07-02T11:12:35.148Z,21.33
2023-07-02T11:15:21.600Z,18.97
2023-07-02T11:17:48.268Z,16.73
2023-07-02T11:20:19.894Z,18.15
2023-07-02T11:22:49.240Z,17.20
2023-07-02T11:25:23.247Z,18.55
2023-07-02T11:27:49.892Z,18.70
2023-07-02T11:30:17.109Z,15.10
2023-07-02T11:32:52.334Z,16.15
2023-07-02T11:35:20.281Z,14.30
2023-07-02T11:37:47.522Z,11.55
2023-07-02T11:40:20.243Z,13.73
2023-07-02T11:42:49.105Z,12.13
2023-07-02T11:45:15.712Z,16.55
2023-07-02T11:47:42.382Z,16.27
2023-07-02T11:50:24.736Z,22.08
2023-07-02T11:52:56.164Z,21.33
2023-07-02T11:55:23.100Z,18.27
2023-07-02T11:57:50.857Z,18.38
2023-07-02T12:00:17.777Z,21.83
2023-07-02T12:02:44.414Z,21.42
2023-07-02T12:05:13.069Z,20.52
2023-07-02T12:07:40.065Z,18.42
2023-07-02T12:10:08.469Z,17.48
2023-07-02T12:12:36.792Z,13.82
2023-07-02T12:15:03.880Z,12.77
2023-07-02T12:17:36.939Z,14.85
2023-07-02T12:20:04.249Z,15.80
2023-07-02T12:22:30.787Z,14.93
2023-07-02T12:24:58.565Z,16.23
2023-07-02T12:27:28.192Z,16.25
2023-07-02T12:29:54.842Z,14.60
2023-07-02T12:32:21.913Z,16.25
2023-07-02T12:34:51.302Z,13.27
2023-07-02T12:37:20.034Z,15.90
2023-07-02T12:39:46.910Z,16.17
2023-07-02T12:42:13.765Z,15.35
2023-07-02T12:44:50.084Z,15.40
2023-07-02T12:47:16.728Z,15.95
2023-07-02T12:49:43.187Z,16.35
2023-07-02T12:52:09.672Z,15.93
2023-07-02T12:54:36.200Z,12.77
2023-07-02T12:57:11.776Z,14.45
2023-07-02T12:59:38.551Z,10.70
2023-07-02T13:02:22.644Z,11.00
2023-07-02T13:04:49.889Z,10.75
2023-07-02T13:07:17.154Z,10.75
2023-07-02T13:09:43.891Z,12.00
2023-07-02T13:12:12.242Z,11.43
2023-07-02T13:14:39.784Z,11.70
2023-07-02T13:17:06.608Z,10.00
2023-07-02T13:19:39.510Z,12.40
2023-07-02T13:22:06.440Z,10.68
2023-07-02T13:24:38.970Z,12.60
2023-07-02T13:27:10.214Z,14.88
2023-07-02T13:29:36.979Z,12.15
2023-07-02T13:32:15.279Z,10.70
2023-07-02T13:34:41.745Z,13.98
2023-07-02T13:37:09.304Z,10.27
2023-07-02T13:39:35.813Z,10.50
2023-07-02T13:42:02.545Z,11.57
2023-07-02T13:44:29.242Z,10.35
2023-07-02T13:46:56.562Z,11.13
2023-07-02T13:49:23.312Z,12.00
2023-07-02T13:51:53.036Z,12.45
2023-07-02T13:54:20.068Z,16.33
2023-07-02T13:56:50.236Z,10.60
2023-07-02T13:59:18.689Z,13.73
2023-07-02T14:01:52.453Z,10.90
2023-07-02T14:04:20.684Z,11.57
2023-07-02T14:06:47.460Z,10.75
2023-07-02T14:09:14.379Z,11.40
2023-07-02T14:11:42.649Z,9.25
2023-07-02T14:14:10.052Z,9.10
2023-07-02T14:16:36.893Z,9.88
2023-07-02T14:19:09.623Z,10.60
2023-07-02T14:21:36.480Z,10.82
2023-07-02T14:24:03.256Z,11.65
2023-07-02T14:26:31.099Z,11.32
2023-07-02T14:28:59.258Z,10.60
2023-07-02T14:31:25.882Z,10.90
2023-07-02T14:33:52.432Z,10.55
2023-07-02T14:36:19.277Z,10.85
2023-07-02T14:38:46.019Z,10.20
2023-07-02T14:41:12.518Z,9.88
2023-07-02T14:43:39.232Z,9.25
2023-07-02T14:46:05.864Z,10.88
2023-07-02T14:48:32.764Z,10.82
2023-07-02T14:51:01.028Z,9.73
2023-07-02T14:53:28.652Z,9.40
2023-07-02T14:56:03.395Z,10.15
2023-07-02T14:58:32.596Z,9.95
2023-07-02T15:01:00.044Z,11.60
2023-07-02T15:03:28.162Z,10.70
2023-07-02T15:05:55.490Z,10.90
2023-07-02T15:08:22.567Z,11.73
2023-07-02T15:10:55.822Z,8.23
2023-07-02T15:13:24.916Z,10.63
2023-07-02T15:15:52.410Z,10.38
2023-07-02T15:18:21.123Z,11.85
2023-07-02T15:20:51.853Z,10.95
2023-07-02T15:23:18.367Z,11.07
2023-07-02T15:25:51.863Z,10.70
2023-07-02T15:28:18.862Z,9.30
2023-07-02T15:30:45.396Z,9.98
2023-07-02T15:33:11.999Z,14.23
2023-07-02T15:35:38.455Z,9.43
2023-07-02T15:38:05.053Z,8.48
2023-07-02T15:40:32.230Z,9.85
2023-07-02T15:42:58.778Z,9.50
2023-07-02T15:45:26.455Z,12.35
2023-07-02T15:47:53.116Z,11.25
2023-07-02T15:50:19.700Z,9.70
2023-07-02T15:52:46.224Z,10.02
2023-07-02T15:55:12.812Z,9.82
2023-07-02T15:57:39.265Z,8.27
2023-07-02T16:00:07.076Z,10.32
2023-07-02T16:02:36.871Z,10.02
2023-07-02T16:05:10.595Z,10.13
2023-07-02T16:07:37.288Z,9.98
2023-07-02T16:10:06.118Z,10.32
2023-07-02T16:12:41.452Z,18.17
2023-07-02T16:15:08.383Z,10.93
2023-07-02T16:17:35.083Z,11.52
2023-07-02T16:20:01.887Z,10.43
2023-07-02T16:22:31.342Z,12.82
2023-07-02T16:24:57.951Z,11.13
2023-07-02T16:27:24.465Z,10.85
2023-07-02T16:29:57.156Z,10.68
2023-07-02T16:32:30.448Z,9.60
2023-07-02T16:35:04.368Z,10.57
2023-07-02T16:37:30.909Z,10.48
2023-07-02T16:39:57.427Z,10.73
2023-07-02T16:42:24.060Z,9.45
2023-07-02T16:44:50.682Z,11.18
2023-07-02T16:47:20.091Z,10.70
2023-07-02T16:49:47.648Z,9.90
2023-07-02T16:52:14.195Z,11.05
2023-07-02T16:54:40.749Z,9.38
2023-07-02T16:57:07.517Z,11.77
2023-07-02T16:59:38.490Z,12.30
2023-07-02T17:02:10.098Z,10.93
2023-07-02T17:04:36.689Z,10.77
2023-07-02T17:07:03.384Z,12.35
2023-07-02T17:09:35.511Z,10.70
2023-07-02T17:12:04.385Z,11.27
2023-07-02T17:14:34.299Z,10.27
2023-07-02T17:17:03.498Z,11.02
2023-07-02T17:19:36.014Z,11.98
2023-07-02T17:22:05.163Z,11.27
2023-07-02T17:24:34.570Z,11.73
2023-07-02T17:27:02.353Z,11.47
2023-07-02T17:29:32.360Z,12.23
2023-07-02T17:32:01.827Z,13.10
2023-07-02T17:34:30.103Z,11.68
2023-07-02T17:36:58.938Z,11.88
2023-07-02T17:39:27.807Z,12.73
2023-07-02T17:41:55.740Z,9.63
2023-07-02T17:44:28.081Z,12.20
2023-07-02T17:47:01.273Z,9.70
2023-07-02T17:49:29.177Z,8.95
2023-07-02T17:51:56.066Z,11.50
2023-07-02T17:54:23.633Z,9.32
2023-07-02T17:56:51.869Z,14.38
2023-07-02T17:59:19.532Z,12.40
2023-07-02T18:01:51.324Z,12.27
2023-07-02T18:04:18.989Z,11.93
2023-07-02T18:06:47.061Z,12.18
2023-07-02T18:09:16.630Z,12.77
2023-07-02T18:11:43.491Z,13.15
2023-07-02T18:14:10.293Z,14.30
2023-07-02T18:16:36.970Z,13.70
2023-07-02T18:19:03.600Z,11.77
2023-07-02T18:21:30.974Z,12.20
2023-07-02T18:23:59.408Z,12.98
2023-07-02T18:26:26.052Z,12.82
2023-07-02T18:28:52.638Z,13.23
2023-07-02T18:31:20.053Z,11.45
2023-07-02T18:33:46.722Z,11.90
2023-07-02T18:36:16.079Z,14.15
2023-07-02T18:38:42.975Z,13.30
2023-07-02T18:41:11.456Z,11.43
2023-07-02T18:43:38.416Z,10.88
2023-07-02T18:46:06.341Z,11.27
2023-07-02T18:48:33.603Z,13.07
2023-07-02T18:51:00.072Z,12.75
2023-07-02T18:53:26.599Z,12.50
2023-07-02T18:56:01.335Z,12.15
2023-07-02T18:58:28.916Z,13.48
2023-07-02T19:00:55.608Z,16.30
2023-07-02T19:03:22.566Z,14.52
2023-07-02T19:05:50.843Z,18.73
2023-07-02T19:08:19.273Z,18.05
2023-07-02T19:10:46.717Z,16.52
2023-07-02T19:13:14.626Z,18.45
2023-07-02T19:15:41.332Z,19.40
2023-07-02T19:18:08.282Z,20.42
2023-07-02T19:20:35.723Z,20.23
2023-07-02T19:23:02.272Z,18.17
2023-07-02T19:25:28.791Z,19.20
2023-07-02T19:27:55.311Z,25.00
2023-07-02T19:30:21.802Z,24.20
2023-07-02T19:32:48.510Z,25.15
2023-07-02T19:35:16.965Z,20.27
2023-07-02T19:37:43.413Z,17.92
2023-07-02T19:40:10.143Z,16.08
2023-07-02T19:42:36.689Z,15.80
2023-07-02T19:45:04.225Z,18.05
2023-07-02T19:47:31.478Z,16.25
2023-07-02T19:49:59.851Z,16.60
2023-07-02T19:52:28.761Z,16.33
2023-07-02T19:55:15.974Z,15.43
2023-07-02T19:57:42.548Z,18.55
2023-07-02T20:00:09.770Z,18.27
2023-07-02T20:02:37.765Z,19.48
2023-07-02T20:05:08.203Z,19.50
2023-07-02T20:10:01.999Z,15.88
2023-07-02T20:12:31.374Z,14.48
2023-07-02T20:15:00.126Z,15.73
2023-07-02T20:17:29.536Z,16.55
2023-07-02T20:19:57.801Z,19.30
2023-07-02T20:22:24.602Z,14.25
2023-07-02T20:24:51.694Z,13.10
2023-07-02T20:27:21.071Z,21.88
2023-07-02T20:29:52.313Z,11.75
2023-07-02T20:32:20.491Z,10.55
2023-07-02T20:34:50.929Z,8.13
2023-07-02T20:37:22.192Z,9.77
2023-07-02T20:39:49.134Z,6.45
2023-07-02T20:42:19.119Z,5.57
2023-07-02T20:44:52.123Z,5.03
2023-07-02T20:47:20.028Z,6.05
2023-07-02T20:49:50.684Z,3.28
2023-07-02T20:52:18.451Z,7.47
2023-07-02T20:54:45.266Z,5.13
2023-07-02T20:57:12.889Z,5.03
2023-07-02T20:59:39.342Z,5.47
2023-07-02T21:02:05.854Z,6.25
2023-07-02T21:04:32.324Z,6.97
2023-07-02T21:06:58.839Z,4.55
2023-07-02T21:09:27.147Z,6.90
2023-07-02T21:11:53.627Z,8.27
2023-07-02T21:14:20.053Z,6.43
2023-07-02T21:16:49.912Z,5.28
2023-07-02T21:19:17.682Z,5.03
2023-07-02T21:21:47.036Z,7.28
2023-07-02T21:24:14.725Z,11.38
2023-07-02T21:26:41.230Z,4.35
2023-07-02T21:29:07.763Z,5.93
2023-07-02T21:31:34.943Z,6.07
2023-07-02T21:34:02.235Z,4.43
2023-07-02T21:36:28.699Z,4.07
2023-07-02T21:38:55.155Z,4.13
2023-07-02T21:41:21.591Z,6.13
2023-07-02T21:43:48.126Z,3.20
2023-07-02T21:46:14.904Z,4.53
2023-07-02T21:48:41.453Z,3.95
2023-07-02T21:51:07.965Z,3.63
2023-07-02T21:53:34.434Z,5.38
2023-07-02T21:56:00.988Z,7.03
2023-07-02T21:58:27.638Z,7.10
2023-07-02T22:00:54.078Z,4.32
2023-07-02T22:03:20.542Z,4.78
2023-07-02T22:05:52.563Z,5.10
2023-07-02T22:08:19.406Z,3.83
2023-07-02T22:10:46.955Z,7.90
2023-07-02T22:13:13.485Z,5.53
2023-07-02T22:15:40.108Z,4.05
2023-07-02T22:18:06.703Z,8.82
2023-07-02T22:20:35.582Z,4.55
2023-07-02T22:23:03.305Z,5.18
2023-07-02T22:25:29.924Z,4.63
2023-07-02T22:27:56.857Z,3.58
2023-07-02T22:30:23.754Z,4.38
2023-07-02T22:32:50.964Z,6.07
2023-07-02T22:35:18.336Z,5.22
2023-07-02T22:37:46.136Z,5.97
2023-07-02T22:40:16.182Z,5.03
2023-07-02T22:42:43.436Z,4.95
2023-07-02T22:45:12.376Z,7.93
2023-07-02T22:47:39.619Z,8.85
2023-07-02T22:50:07.114Z,5.47
2023-07-02T22:52:35.448Z,4.72
2023-07-02T22:55:02.718Z,6.13
2023-07-02T22:57:32.818Z,5.38
2023-07-02T23:00:01.057Z,11.15
2023-07-02T23:02:29.360Z,5.68
2023-07-02T23:04:55.945Z,4.70
2023-07-02T23:07:22.459Z,4.90
2023-07-02T23:09:48.999Z,5.85
2023-07-02T23:12:15.462Z,6.95
2023-07-02T23:14:41.896Z,6.43
2023-07-02T23:17:08.461Z,4.30
2023-07-02T23:19:35.680Z,3.58
2023-07-02T23:22:02.873Z,4.68
2023-07-02T23:24:30.123Z,3.90
2023-07-02T23:26:56.990Z,6.65
2023-07-02T23:29:25.141Z,5.22
2023-07-02T23:31:51.922Z,3.67
2023-07-02T23:34:18.682Z,3.58
2023-07-02T23:36:48.095Z,2.92
2023-07-02T23:39:15.489Z,6.18
2023-07-02T23:41:42.417Z,7.13
2023-07-02T23:44:10.782Z,6.60
2023-07-02T23:46:39.013Z,4.43
2023-07-02T23:49:05.746Z,3.05
2023-07-02T23:51:32.402Z,4.18
2023-07-02T23:53:58.873Z,9.52
2023-07-02T23:56:25.321Z,4.95
2023-07-02T23:58:51.851Z,5.53
